WetterOnline ( https://www.wetteronline.de )

Wetter aktuell Ustecchio

Aktuelles Wetter: Ghedi (97m)

6-stündlich | Neueste Meldungen
Ortszeit Temperatur Wetter
Mi, 28.07. 14:00 28.2° C wolkig
Mi, 28.07. 8:00 21.4° C leicht bewölkt
Mi, 28.07. 2:00 21.0° C leicht bewölkt
Di, 27.07. 20:00 23.8° C leicht bewölkt
Di, 27.07. 14:00 28.2° C leicht bewölkt
Di, 27.07. 8:00 22.2° C leicht bewölkt
Di, 27.07. 2:00 23.0° C wolkenlos
Mo, 26.07. 20:00 27.0° C leicht bewölkt
Ortszeit Temperatur Wetter
Mi, 28.07. 15:00 27.0° C leicht bewölkt
Mi, 28.07. 14:55 27° C leicht bewölkt
Mi, 28.07. 14:00 28.2° C wolkig
Mi, 28.07. 13:55 28° C leicht bewölkt
Mi, 28.07. 13:00 27.4° C leicht bewölkt
Mi, 28.07. 12:55 27° C leicht bewölkt
Mi, 28.07. 12:00 26.4° C leicht bewölkt
Mi, 28.07. 11:55 26° C leicht bewölkt
Mi, 28.07. 11:00 25.6° C leicht bewölkt
Ortszeit Relative Feuchte Sichtweite
Mi, 28.07. 14:00 59% 10 km
Mi, 28.07. 8:00 87% 6 km
Mi, 28.07. 2:00 90% 6 km
Di, 27.07. 20:00 85% 10 km
Di, 27.07. 14:00 70% 10 km
Di, 27.07. 8:00 89% 10 km
Di, 27.07. 2:00 90% 10 km
Mo, 26.07. 20:00 70% 10 km
Ortszeit Relative Feuchte Sichtweite
Mi, 28.07. 15:00 67% 10 km
Mi, 28.07. 14:55 66% >10 km
Mi, 28.07. 14:00 59% 10 km
Mi, 28.07. 13:55 58% >10 km
Mi, 28.07. 13:00 60% 10 km
Mi, 28.07. 12:55 62% >10 km
Mi, 28.07. 12:00 65% 10 km
Mi, 28.07. 11:55 65% >10 km
Mi, 28.07. 11:00 68% 10 km
Ortszeit Niederschlagsmenge Niederschlagsart
Mi, 28.07. 14:00 0.0 l/m2 in 6 Std. -
Mi, 28.07. 8:00 0.0 l/m2 in 12 Std. -
Mi, 28.07. 2:00 0.0 l/m2 in 6 Std. -
Di, 27.07. 20:00 2 l/m2 in 12 Std. Gewitter, Regen
Di, 27.07. 14:00 0.0 l/m2 in 6 Std. -
Di, 27.07. 8:00 0.0 l/m2 in 12 Std. -
Di, 27.07. 2:00 0.0 l/m2 in 6 Std. -
Mo, 26.07. 20:00 0.1 l/m2 in 12 Std. Gewitter, Regen
Ortszeit Niederschlagsmenge Niederschlagsart
Mi, 28.07. 15:00 keine Meldung -
Mi, 28.07. 14:55 keine Meldung -
Mi, 28.07. 14:00 keine Meldung -
Mi, 28.07. 13:55 keine Meldung -
Mi, 28.07. 13:00 keine Meldung -
Mi, 28.07. 12:55 keine Meldung -
Mi, 28.07. 12:00 keine Meldung -
Mi, 28.07. 11:55 keine Meldung -
Mi, 28.07. 11:00 keine Meldung -
Ortszeit Stärke Spitze Richtung
km/h Bft. km/h Grad Sektor
Mi, 28.07. 14:00 6 1 - 150° SO
Mi, 28.07. 8:00 4 1 - 290° W
Mi, 28.07. 2:00 2 1 - 110° O
Di, 27.07. 20:00 13 3 - 100° O
Di, 27.07. 14:00 20 4 - 90° O
Di, 27.07. 8:00 15 3 - 100° O
Di, 27.07. 2:00 7 2 - 50° NO
Mo, 26.07. 20:00 6 1 - 280° W
Ortszeit Stärke Spitze Richtung
km/h Bft. km/h Grad Sektor
Mi, 28.07. 15:00 6 1 - 160° S
Mi, 28.07. 14:55 6 1 - 160° S
Mi, 28.07. 14:00 6 1 - 150° SO
Mi, 28.07. 13:55 6 1 - 150° SO
Mi, 28.07. 13:00 7 2 - 100° O
Mi, 28.07. 12:55 7 2 - 100° O
Mi, 28.07. 12:00 13 3 - 120° SO
Mi, 28.07. 11:55 13 3 - 120° SO
Mi, 28.07. 11:00 6 1 - 140° SO
Ortszeit Untergrenze Bedeckung Gattung
total tief tief mittel hoch
Mi, 28.07. 14:00 900 m 6/8 2/8 Cu As Ci
Mi, 28.07. 8:00 3600 m 3/8 2/8 - Ac Ci
Mi, 28.07. 2:00 4200 m 3/8 3/8 - Ac -
Di, 27.07. 20:00 1200 m 6/8 2/8 Cu Ac -
Di, 27.07. 14:00 1050 m 5/8 2/8 Cu Ac -
Di, 27.07. 8:00 3600 m 6/8 4/8 - Ac Ci
Di, 27.07. 2:00 - 0/8 0/8 - - -
Mo, 26.07. 20:00 2400 m 5/8 4/8 - Ac Ci
Ortszeit Bedeckungsgrad in Achtel und Wolkenuntergrenze
Mi, 28.07. 15:00 1(1800m) 3(3000m)
Mi, 28.07. 14:55 1-2(1800m)
Mi, 28.07. 14:00 2(900m) 3(1800m)
Mi, 28.07. 13:55 1-2(900m) 3-4(1800m)
Mi, 28.07. 13:00 3(1800m) 3(2400m)
Mi, 28.07. 12:55 3-4(1800m) 3-4(2400m)
Mi, 28.07. 12:00 1(2400m) 3(4200m)
Mi, 28.07. 11:55 1-2(2400m)
Mi, 28.07. 11:00 2(1800m) 5(4500m)
Ortszeit Luftdruck NN (hPa) Tendenz (hPa in 3 Std.)
Mi, 28.07. 14:00 1014 - 0,5
Mi, 28.07. 8:00 1014 0,0
Mi, 28.07. 2:00 1015 + 0,9
Di, 27.07. 20:00 1014 - 1,2
Di, 27.07. 14:00 1015 - 0,2
Di, 27.07. 8:00 1015 + 0,6
Di, 27.07. 2:00 1014 + 1,0
Mo, 26.07. 20:00 1012 - 0,3
Ortszeit Luftdruck NN (hPa) Tendenz (hPa in 3 Std.)
Mi, 28.07. 15:00 1013 - 0,9
Mi, 28.07. 14:55 1013 keine Meldung
Mi, 28.07. 14:00 1014 - 0,5
Mi, 28.07. 13:55 1014 keine Meldung
Mi, 28.07. 13:00 1014 - 0,3
Mi, 28.07. 12:55 1014 keine Meldung
Mi, 28.07. 12:00 1014 - 0,1
Mi, 28.07. 11:55 1014 keine Meldung
Mi, 28.07. 11:00 1014 0,0
Ortszeit Schneehöhe (cm)
Mi, 28.07. 14:00 -
Mi, 28.07. 8:00 0
Mi, 28.07. 2:00 -
Di, 27.07. 20:00 -
Di, 27.07. 14:00 -
Di, 27.07. 8:00 0
Di, 27.07. 2:00 -
Mo, 26.07. 20:00 -
Ortszeit Schneehöhe (cm)
Mi, 28.07. 15:00 -
Mi, 28.07. 14:55 -
Mi, 28.07. 14:00 -
Mi, 28.07. 13:55 -
Mi, 28.07. 13:00 -
Mi, 28.07. 12:55 -
Mi, 28.07. 12:00 -
Mi, 28.07. 11:55 -
Mi, 28.07. 11:00 -
Link zu dieser Seite / Seite empfehlen

Das Wetter in ...